createdAt,value
2023-03-30T00:02:03.446Z,3.95
2023-03-30T00:04:52.517Z,3.58
2023-03-30T00:07:38.303Z,7.90
2023-03-30T00:10:23.838Z,5.40
2023-03-30T00:13:09.281Z,4.63
2023-03-30T00:15:54.884Z,6.05
2023-03-30T00:18:40.629Z,7.72
2023-03-30T00:21:28.076Z,5.13
2023-03-30T00:24:13.831Z,7.88
2023-03-30T00:26:58.910Z,4.88
2023-03-30T00:29:44.417Z,6.05
2023-03-30T00:32:29.786Z,8.75
2023-03-30T00:35:15.296Z,6.03
2023-03-30T00:38:04.111Z,9.85
2023-03-30T00:40:57.336Z,6.72
2023-03-30T00:44:02.078Z,4.32
2023-03-30T00:46:47.055Z,6.65
2023-03-30T00:49:34.655Z,5.82
2023-03-30T00:52:24.910Z,8.65
2023-03-30T00:55:12.656Z,9.90
2023-03-30T00:57:57.965Z,6.90
2023-03-30T01:00:47.067Z,5.70
2023-03-30T01:03:37.198Z,6.07
2023-03-30T01:06:24.669Z,5.97
2023-03-30T01:09:09.636Z,6.13
2023-03-30T01:11:55.162Z,6.05
2023-03-30T01:14:40.481Z,6.47
2023-03-30T01:17:46.305Z,9.55
2023-03-30T01:21:00.620Z,6.78
2023-03-30T01:24:20.673Z,11.98
2023-03-30T01:27:28.493Z,10.48
2023-03-30T01:30:51.051Z,8.95
2023-03-30T01:34:07.917Z,4.90
2023-03-30T01:37:15.299Z,4.82
2023-03-30T01:40:09.925Z,5.47
2023-03-30T01:43:17.971Z,7.47
2023-03-30T01:46:25.385Z,12.15
2023-03-30T01:49:34.734Z,7.20
2023-03-30T01:52:38.530Z,6.75
2023-03-30T01:55:36.924Z,6.47
2023-03-30T01:58:39.837Z,6.25
2023-03-30T02:01:28.237Z,5.03
2023-03-30T02:04:13.738Z,8.15
2023-03-30T02:07:04.023Z,11.93
2023-03-30T02:09:52.305Z,9.95
2023-03-30T02:12:38.498Z,8.95
2023-03-30T02:15:26.295Z,8.18
2023-03-30T02:18:11.778Z,11.70
2023-03-30T02:20:58.912Z,6.10
2023-03-30T02:23:46.167Z,5.78
2023-03-30T02:26:32.464Z,7.22
2023-03-30T02:29:18.771Z,6.95
2023-03-30T02:32:04.700Z,7.57
2023-03-30T02:35:16.080Z,6.57
2023-03-30T02:38:33.768Z,8.48
2023-03-30T02:41:39.100Z,8.98
2023-03-30T02:44:57.705Z,8.27
2023-03-30T02:48:11.476Z,7.05
2023-03-30T02:51:19.584Z,7.57
2023-03-30T02:54:10.836Z,5.78
2023-03-30T02:57:07.211Z,10.45
2023-03-30T03:00:22.640Z,7.47
2023-03-30T03:03:24.060Z,8.63
2023-03-30T03:06:09.824Z,8.75
2023-03-30T03:08:56.210Z,13.93
2023-03-30T03:11:41.459Z,5.95
2023-03-30T03:14:26.850Z,7.00
2023-03-30T03:17:13.549Z,6.95
2023-03-30T03:19:59.272Z,6.32
2023-03-30T03:22:44.563Z,7.38
2023-03-30T03:25:29.898Z,7.47
2023-03-30T03:28:15.509Z,9.18
2023-03-30T03:31:02.560Z,9.32
2023-03-30T03:33:48.247Z,8.60
2023-03-30T03:36:33.691Z,7.32
2023-03-30T03:39:19.306Z,7.43
2023-03-30T03:42:05.310Z,9.98
2023-03-30T03:44:50.645Z,5.72
2023-03-30T03:47:36.231Z,8.35
2023-03-30T03:50:21.407Z,14.30
2023-03-30T03:53:06.941Z,29.75
2023-03-30T03:55:52.433Z,28.58
2023-03-30T03:58:37.694Z,17.75
2023-03-30T04:01:23.091Z,10.50
2023-03-30T04:04:08.319Z,12.77
2023-03-30T04:06:53.770Z,9.68
2023-03-30T04:09:39.038Z,9.38
2023-03-30T04:12:24.331Z,13.20
2023-03-30T04:15:09.867Z,10.70
2023-03-30T04:17:58.169Z,9.65
2023-03-30T04:20:43.816Z,10.93
2023-03-30T04:23:33.705Z,8.65
2023-03-30T04:26:18.856Z,10.23
2023-03-30T04:29:06.782Z,14.35
2023-03-30T04:31:52.442Z,11.50
2023-03-30T04:34:37.672Z,12.90
2023-03-30T04:37:30.155Z,12.85
2023-03-30T04:40:16.257Z,12.98
2023-03-30T04:43:02.725Z,10.85
2023-03-30T04:45:52.824Z,11.38
2023-03-30T04:48:37.990Z,11.80
2023-03-30T04:51:23.952Z,10.95
2023-03-30T04:54:09.212Z,12.30
2023-03-30T04:56:54.788Z,9.27
2023-03-30T04:59:41.346Z,8.73
2023-03-30T05:02:27.129Z,9.57
2023-03-30T05:05:12.616Z,10.10
2023-03-30T05:07:58.351Z,9.95
2023-03-30T05:10:43.503Z,8.80
2023-03-30T05:13:29.071Z,9.15
2023-03-30T05:16:14.163Z,9.90
2023-03-30T05:18:59.526Z,7.32
2023-03-30T05:21:44.932Z,9.05
2023-03-30T05:24:30.462Z,12.02
2023-03-30T05:27:15.770Z,10.25
2023-03-30T05:30:01.122Z,11.30
2023-03-30T05:32:46.649Z,9.30
2023-03-30T05:35:32.147Z,9.35
2023-03-30T05:38:17.744Z,13.27
2023-03-30T05:41:05.137Z,13.00
2023-03-30T05:43:51.137Z,13.73
2023-03-30T05:46:36.649Z,11.32
2023-03-30T05:49:21.973Z,12.48
2023-03-30T05:52:07.465Z,13.57
2023-03-30T05:54:52.758Z,11.05
2023-03-30T05:57:38.468Z,8.48
2023-03-30T06:00:23.845Z,8.82
2023-03-30T06:03:09.425Z,9.98
2023-03-30T06:05:54.774Z,8.95
2023-03-30T06:08:41.835Z,20.92
2023-03-30T06:11:28.232Z,15.60
2023-03-30T06:14:13.605Z,25.20
2023-03-30T06:16:58.847Z,16.10
2023-03-30T06:19:44.377Z,9.55
2023-03-30T06:22:31.401Z,13.70
2023-03-30T06:25:20.315Z,11.80
2023-03-30T06:28:05.930Z,12.65
2023-03-30T06:30:51.522Z,15.13
2023-03-30T06:33:37.894Z,15.02
2023-03-30T06:36:45.143Z,9.90
2023-03-30T06:39:30.313Z,11.55
2023-03-30T06:42:15.613Z,8.88
2023-03-30T06:45:01.025Z,10.85
2023-03-30T06:47:46.496Z,12.30
2023-03-30T06:50:31.588Z,9.55
2023-03-30T06:53:17.150Z,10.00
2023-03-30T06:56:02.535Z,12.45
2023-03-30T06:58:48.284Z,10.15
2023-03-30T07:01:33.814Z,13.95
2023-03-30T07:04:18.991Z,11.40
2023-03-30T07:07:04.276Z,13.30
2023-03-30T07:09:50.070Z,9.23
2023-03-30T07:12:38.995Z,16.52
2023-03-30T07:15:24.490Z,11.02
2023-03-30T07:18:09.951Z,11.70
2023-03-30T07:20:59.212Z,13.13
2023-03-30T07:23:44.738Z,16.63
2023-03-30T07:26:30.497Z,24.35
2023-03-30T07:29:15.952Z,14.88
2023-03-30T07:32:01.291Z,18.40
2023-03-30T07:34:47.330Z,11.35
2023-03-30T07:37:32.468Z,16.13
2023-03-30T07:40:18.096Z,13.10
2023-03-30T07:43:03.891Z,19.67
2023-03-30T07:45:49.122Z,15.57
2023-03-30T07:48:34.370Z,10.23
2023-03-30T07:51:20.183Z,11.75
2023-03-30T07:54:05.347Z,11.73
2023-03-30T07:56:53.022Z,12.38
2023-03-30T07:59:38.281Z,14.70
2023-03-30T08:02:23.721Z,13.30
2023-03-30T08:05:09.667Z,19.20
2023-03-30T08:07:55.122Z,13.23
2023-03-30T08:10:40.641Z,14.85
2023-03-30T08:13:26.096Z,19.88
2023-03-30T08:16:11.739Z,21.83
2023-03-30T08:18:56.857Z,22.88
2023-03-30T08:21:42.109Z,22.27
2023-03-30T08:24:27.812Z,17.70
2023-03-30T08:27:13.009Z,22.40
2023-03-30T08:29:58.285Z,28.65
2023-03-30T08:32:43.793Z,20.30
2023-03-30T08:35:29.194Z,20.50
2023-03-30T08:38:18.983Z,18.10
2023-03-30T08:41:27.129Z,21.95
2023-03-30T08:44:29.250Z,18.23
2023-03-30T08:47:42.051Z,18.25
2023-03-30T08:50:34.002Z,14.32
2023-03-30T08:53:19.928Z,14.80
2023-03-30T08:56:11.064Z,14.10
2023-03-30T08:59:23.194Z,17.15
2023-03-30T09:02:16.851Z,14.70
2023-03-30T09:05:13.843Z,14.73
2023-03-30T09:08:21.074Z,18.42
2023-03-30T09:11:12.588Z,16.15
2023-03-30T09:14:01.652Z,11.70
2023-03-30T09:16:58.067Z,13.93
2023-03-30T09:19:54.497Z,12.27
2023-03-30T09:22:41.861Z,14.25
2023-03-30T09:25:26.822Z,10.20
2023-03-30T09:28:31.874Z,10.48
2023-03-30T09:31:27.762Z,13.77
2023-03-30T09:34:34.446Z,9.77
2023-03-30T09:37:21.631Z,10.30
2023-03-30T09:40:31.114Z,12.18
2023-03-30T09:43:28.136Z,7.15
2023-03-30T09:46:15.193Z,8.55
2023-03-30T09:49:16.904Z,12.02
2023-03-30T09:52:05.817Z,11.23
2023-03-30T09:54:51.618Z,14.02
2023-03-30T09:57:37.134Z,11.50
2023-03-30T10:00:33.705Z,6.45
2023-03-30T10:03:21.881Z,7.90
2023-03-30T10:06:12.735Z,10.15
2023-03-30T10:08:58.288Z,7.38
2023-03-30T10:11:48.115Z,5.80
2023-03-30T10:14:37.682Z,9.93
2023-03-30T10:17:27.100Z,10.20
2023-03-30T10:20:22.473Z,9.65
2023-03-30T10:23:18.853Z,6.30
2023-03-30T10:26:05.071Z,6.93
2023-03-30T10:29:13.548Z,7.20
2023-03-30T10:32:31.640Z,10.27
2023-03-30T10:35:38.273Z,3.58
2023-03-30T10:38:24.442Z,7.35
2023-03-30T10:41:16.434Z,3.75
2023-03-30T10:44:24.979Z,5.40
2023-03-30T10:47:34.643Z,5.07
2023-03-30T10:50:28.789Z,9.63
2023-03-30T10:53:31.092Z,4.55
2023-03-30T10:56:32.604Z,10.07
2023-03-30T10:59:48.066Z,7.85
2023-03-30T11:02:46.774Z,5.38
2023-03-30T11:05:37.404Z,6.03
2023-03-30T11:08:43.970Z,5.15
2023-03-30T11:12:08.943Z,7.10
2023-03-30T11:15:04.127Z,6.88
2023-03-30T11:17:59.906Z,5.95
2023-03-30T11:21:05.645Z,4.03
2023-03-30T11:24:19.950Z,5.65
2023-03-30T11:27:20.733Z,6.18
2023-03-30T11:30:16.253Z,6.07
2023-03-30T11:33:22.609Z,5.95
2023-03-30T11:36:32.403Z,5.43
2023-03-30T11:39:31.804Z,6.22
2023-03-30T11:42:33.419Z,6.55
2023-03-30T11:45:46.004Z,6.80
2023-03-30T11:48:47.616Z,5.47
2023-03-30T11:51:53.147Z,8.40
2023-03-30T11:55:03.665Z,7.53
2023-03-30T11:58:01.171Z,6.32
2023-03-30T12:00:55.959Z,8.98
2023-03-30T12:03:44.647Z,7.65
2023-03-30T12:06:36.845Z,8.18
2023-03-30T12:09:38.484Z,5.82
2023-03-30T12:12:39.030Z,4.10
2023-03-30T12:15:44.769Z,8.48
2023-03-30T12:18:50.862Z,9.07
2023-03-30T12:21:54.050Z,7.78
2023-03-30T12:25:01.441Z,4.20
2023-03-30T12:28:09.315Z,11.90
2023-03-30T12:30:58.722Z,6.32
2023-03-30T12:33:48.453Z,6.93
2023-03-30T12:36:38.698Z,8.77
2023-03-30T12:39:57.814Z,9.65
2023-03-30T12:43:13.163Z,6.00
2023-03-30T12:46:35.950Z,10.82
2023-03-30T12:49:30.956Z,4.95
2023-03-30T12:52:41.052Z,4.38
2023-03-30T12:55:46.015Z,5.50
2023-03-30T12:58:53.118Z,9.18
2023-03-30T13:01:41.384Z,9.20
2023-03-30T13:04:33.020Z,8.35
2023-03-30T13:07:23.167Z,6.80
2023-03-30T13:10:40.193Z,6.35
2023-03-30T13:14:08.336Z,6.47
2023-03-30T13:16:53.729Z,4.57
2023-03-30T13:19:41.999Z,9.93
2023-03-30T13:22:30.360Z,5.10
2023-03-30T13:25:29.187Z,3.95
2023-03-30T13:28:45.956Z,7.47
2023-03-30T13:31:44.114Z,6.00
2023-03-30T13:35:06.203Z,11.30
2023-03-30T13:38:00.319Z,5.93
2023-03-30T13:41:11.961Z,7.82
2023-03-30T13:44:09.878Z,5.65
2023-03-30T13:47:16.065Z,7.07
2023-03-30T13:50:06.153Z,4.95
2023-03-30T13:52:53.783Z,5.07
2023-03-30T13:55:46.916Z,4.68
2023-03-30T13:58:33.489Z,8.68
2023-03-30T14:01:22.281Z,5.45
2023-03-30T14:04:13.777Z,6.13
2023-03-30T14:07:25.622Z,3.30
2023-03-30T14:10:19.894Z,7.15
2023-03-30T14:13:10.017Z,5.45
2023-03-30T14:15:55.670Z,7.07
2023-03-30T14:18:42.209Z,7.90
2023-03-30T14:21:27.946Z,9.43
2023-03-30T14:24:16.933Z,5.72
2023-03-30T14:27:22.623Z,6.50
2023-03-30T14:30:23.076Z,6.18
2023-03-30T14:33:14.444Z,5.20
2023-03-30T14:36:01.652Z,4.07
2023-03-30T14:38:57.510Z,3.45
2023-03-30T14:41:43.546Z,5.20
2023-03-30T14:44:28.571Z,5.43
2023-03-30T14:47:15.935Z,6.97
2023-03-30T14:50:06.558Z,6.47
2023-03-30T14:52:52.339Z,5.97
2023-03-30T14:55:38.351Z,4.57
2023-03-30T14:58:26.518Z,6.53
2023-03-30T15:01:16.458Z,7.50
2023-03-30T15:04:15.122Z,5.07
2023-03-30T15:07:00.854Z,8.00
2023-03-30T15:09:46.710Z,7.03
2023-03-30T15:12:33.713Z,6.18
2023-03-30T15:15:23.857Z,4.07
2023-03-30T15:18:18.961Z,5.88
2023-03-30T15:21:08.885Z,6.13
2023-03-30T15:23:54.815Z,6.55
2023-03-30T15:26:46.209Z,6.25
2023-03-30T15:29:32.631Z,5.50
2023-03-30T15:32:21.641Z,5.20
2023-03-30T15:35:32.446Z,7.75
2023-03-30T15:38:28.082Z,5.55
2023-03-30T15:41:15.998Z,6.95
2023-03-30T15:44:13.112Z,3.00
2023-03-30T15:47:00.769Z,7.55
2023-03-30T15:49:50.716Z,3.58
2023-03-30T15:52:41.647Z,2.15
2023-03-30T15:55:29.888Z,1.52
2023-03-30T15:58:20.631Z,4.35
2023-03-30T16:01:08.002Z,6.57
2023-03-30T16:03:56.753Z,3.30
2023-03-30T16:06:43.582Z,3.65
2023-03-30T16:09:30.263Z,4.72
2023-03-30T16:12:18.376Z,2.70
2023-03-30T16:15:03.803Z,2.13
2023-03-30T16:17:50.496Z,3.78
2023-03-30T16:20:35.661Z,6.03
2023-03-30T16:23:21.223Z,2.78
2023-03-30T16:26:09.583Z,4.30
2023-03-30T16:28:55.318Z,2.72
2023-03-30T16:31:40.849Z,3.67
2023-03-30T16:34:26.245Z,2.42
2023-03-30T16:37:11.948Z,2.58
2023-03-30T16:39:57.028Z,4.20
2023-03-30T16:42:42.488Z,5.65
2023-03-30T16:45:28.714Z,5.28
2023-03-30T16:48:15.218Z,3.58
2023-03-30T16:51:00.383Z,9.43
2023-03-30T16:53:46.075Z,2.88
2023-03-30T16:56:31.577Z,5.55
2023-03-30T16:59:25.261Z,4.20
2023-03-30T17:02:15.496Z,1.70
2023-03-30T17:05:02.689Z,2.38
2023-03-30T17:07:48.100Z,2.92
2023-03-30T17:10:39.044Z,2.25
2023-03-30T17:13:24.249Z,1.50
2023-03-30T17:16:14.477Z,2.10
2023-03-30T17:18:59.537Z,2.17
2023-03-30T17:21:45.830Z,4.70
2023-03-30T17:24:31.478Z,1.60
2023-03-30T17:27:17.364Z,2.20
2023-03-30T17:30:17.341Z,4.13
2023-03-30T17:33:04.865Z,11.05
2023-03-30T17:36:05.148Z,8.55
2023-03-30T17:38:51.389Z,3.80
2023-03-30T17:41:38.317Z,3.95
2023-03-30T17:44:24.232Z,2.83
2023-03-30T17:47:10.333Z,3.30
2023-03-30T17:49:55.766Z,5.22
2023-03-30T17:52:41.557Z,8.57
2023-03-30T17:55:30.044Z,9.70
2023-03-30T17:58:34.581Z,9.90
2023-03-30T18:01:19.976Z,10.57
2023-03-30T18:04:05.594Z,11.55
2023-03-30T18:06:51.236Z,8.98
2023-03-30T18:09:36.378Z,10.20
2023-03-30T18:12:21.682Z,8.15
2023-03-30T18:15:08.115Z,8.30
2023-03-30T18:17:55.656Z,10.02
2023-03-30T18:20:45.985Z,8.93
2023-03-30T18:23:33.544Z,11.10
2023-03-30T18:26:18.603Z,35.95
2023-03-30T18:29:06.507Z,8.02
2023-03-30T18:31:52.852Z,12.40
2023-03-30T18:34:38.156Z,25.08
2023-03-30T18:37:23.955Z,12.10
2023-03-30T18:40:16.957Z,8.63
2023-03-30T18:43:02.540Z,6.50
2023-03-30T18:45:50.067Z,5.93
2023-03-30T18:48:35.800Z,5.90
2023-03-30T18:51:21.601Z,5.55
2023-03-30T18:54:07.122Z,7.85
2023-03-30T18:56:52.541Z,6.13
2023-03-30T18:59:40.481Z,5.07
2023-03-30T19:02:26.548Z,7.00
2023-03-30T19:05:12.109Z,7.07
2023-03-30T19:07:57.828Z,5.95
2023-03-30T19:10:44.513Z,7.13
2023-03-30T19:13:29.882Z,8.18
2023-03-30T19:16:16.602Z,6.90
2023-03-30T19:19:01.748Z,7.57
2023-03-30T19:21:47.055Z,8.63
2023-03-30T19:24:32.503Z,8.07
2023-03-30T19:27:18.108Z,9.85
2023-03-30T19:30:04.675Z,10.82
2023-03-30T19:32:51.354Z,10.57
2023-03-30T19:35:38.793Z,7.57
2023-03-30T19:38:24.570Z,8.82
2023-03-30T19:41:09.773Z,5.25
2023-03-30T19:43:54.920Z,5.80
2023-03-30T19:46:40.772Z,7.43
2023-03-30T19:49:25.886Z,6.28
2023-03-30T19:52:11.389Z,6.13
2023-03-30T19:54:57.190Z,6.80
2023-03-30T19:57:42.704Z,9.02
2023-03-30T20:00:28.195Z,7.15
2023-03-30T20:03:14.515Z,4.85
2023-03-30T20:06:00.211Z,5.93
2023-03-30T20:08:46.077Z,6.90
2023-03-30T20:11:31.318Z,5.28
2023-03-30T20:14:16.575Z,4.93
2023-03-30T20:17:02.019Z,4.85
2023-03-30T20:19:47.823Z,5.85
2023-03-30T20:22:37.019Z,3.53
2023-03-30T20:25:22.627Z,6.30
2023-03-30T20:28:08.585Z,8.68
2023-03-30T20:30:57.102Z,7.00
2023-03-30T20:33:42.766Z,6.43
2023-03-30T20:36:29.585Z,5.07
2023-03-30T20:39:14.693Z,4.75
2023-03-30T20:42:08.469Z,5.60
2023-03-30T20:44:54.258Z,7.97
2023-03-30T20:47:39.788Z,5.35
2023-03-30T20:50:25.448Z,4.18
2023-03-30T20:53:10.644Z,5.22
2023-03-30T20:55:56.578Z,8.70
2023-03-30T20:58:41.800Z,5.78
2023-03-30T21:01:28.400Z,4.80
2023-03-30T21:04:13.993Z,4.40
2023-03-30T21:07:00.097Z,5.90
2023-03-30T21:09:45.716Z,3.83
2023-03-30T21:12:31.194Z,4.18
2023-03-30T21:15:17.133Z,5.07
2023-03-30T21:18:02.475Z,7.28
2023-03-30T21:20:47.900Z,5.32
2023-03-30T21:23:34.213Z,5.18
2023-03-30T21:26:19.403Z,3.35
2023-03-30T21:29:05.770Z,6.55
2023-03-30T21:31:51.315Z,6.95
2023-03-30T21:34:36.653Z,3.63
2023-03-30T21:37:22.427Z,3.80
2023-03-30T21:40:08.712Z,9.80
2023-03-30T21:42:53.966Z,5.35
2023-03-30T21:45:39.453Z,8.55
2023-03-30T21:48:26.824Z,3.08
2023-03-30T21:51:24.600Z,3.58
2023-03-30T21:54:10.315Z,3.83
2023-03-30T21:56:55.630Z,4.40
2023-03-30T21:59:40.849Z,3.42
2023-03-30T22:02:26.278Z,5.57
2023-03-30T22:05:11.899Z,7.97
2023-03-30T22:07:57.046Z,3.90
2023-03-30T22:10:42.984Z,5.88
2023-03-30T22:13:28.510Z,4.82
2023-03-30T22:16:25.621Z,7.45
2023-03-30T22:19:10.946Z,16.33
2023-03-30T22:21:56.638Z,8.80
2023-03-30T22:24:41.979Z,11.75
2023-03-30T22:27:27.588Z,5.47
2023-03-30T22:30:13.869Z,7.50
2023-03-30T22:32:58.838Z,7.20
2023-03-30T22:35:47.033Z,6.35
2023-03-30T22:38:32.895Z,5.20
2023-03-30T22:41:23.656Z,7.13
2023-03-30T22:44:09.561Z,8.07
2023-03-30T22:46:54.643Z,8.57
2023-03-30T22:49:40.181Z,7.82
2023-03-30T22:52:25.479Z,4.57
2023-03-30T22:55:10.819Z,10.38
2023-03-30T22:57:58.977Z,7.28
2023-03-30T23:00:44.303Z,6.55
2023-03-30T23:03:29.704Z,8.15
2023-03-30T23:06:18.789Z,6.78
2023-03-30T23:09:05.097Z,3.08
2023-03-30T23:11:51.365Z,9.57
2023-03-30T23:14:37.897Z,4.60
2023-03-30T23:17:24.439Z,4.30
2023-03-30T23:20:11.808Z,7.93
2023-03-30T23:22:57.032Z,5.03
2023-03-30T23:25:50.113Z,5.65
2023-03-30T23:28:36.346Z,7.05
2023-03-30T23:31:22.140Z,6.57
2023-03-30T23:34:10.081Z,6.20
2023-03-30T23:36:55.590Z,5.15
2023-03-30T23:39:40.888Z,4.13
2023-03-30T23:42:26.191Z,5.45
2023-03-30T23:45:11.737Z,7.50
2023-03-30T23:47:57.177Z,4.60
2023-03-30T23:50:42.499Z,6.90
2023-03-30T23:53:27.844Z,5.32
2023-03-30T23:56:17.316Z,6.65
2023-03-30T23:59:03.569Z,5.88
